CSW128 LSZB-LEJR
Flight info
| Callsign | CSW128 |
|---|---|
| Flight time | 2h 20m |
| Altitude | 37000 |
| Route | AMRID Z144 ESEVA Z669 VADAR DCT NINTU DCT MEBAK DCT REPSI DCT LERGA DCT MINSO DCT NARAK DCT AGN DCT MAQAB DCT TIVLI DCT ELSAP DCT ZAR DCT KONKE DCT TERSA DCT CJN N10 HIJ |
| Aircraft | A320/M-SDE3FGHIRWY/LB1 |
Departure
| Time | 2026-04-22 16:34 |
|---|---|
| Airport | Bern Airport (LSZB) |
Arrival
| Time | 2026-04-22 18:54 |
|---|---|
| Airport | Jerez Airport (LEJR) |
| Time | Latitude | Longitude | Altitude | Speed | Heading |
|---|---|---|---|---|---|
| 2026-04-22 16:05 | 46.91272 | 7.50127 | 1726 ft | 0 kts | 92° |
| 2026-04-22 16:29 | 46.91271 | 7.50128 | 1731 ft | 0 kts | 99° |
| 2026-04-22 16:30 | 46.91270 | 7.50129 | 1734 ft | 0 kts | 108° |
| 2026-04-22 16:30 | 46.91268 | 7.50134 | 1734 ft | 4 kts | 122° |
| 2026-04-22 16:30 | 46.91255 | 7.50137 | 1729 ft | 1 kts | 193° |
| 2026-04-22 16:30 | 46.91253 | 7.50132 | 1734 ft | 1 kts | 223° |
| 2026-04-22 16:31 | 46.91256 | 7.50083 | 1730 ft | 12 kts | 285° |
| 2026-04-22 16:31 | 46.91269 | 7.49984 | 1702 ft | 8 kts | 235° |
| 2026-04-22 16:31 | 46.91225 | 7.49944 | 1685 ft | 7 kts | 169° |
| 2026-04-22 16:31 | 46.91177 | 7.50001 | 1684 ft | 13 kts | 139° |
| 2026-04-22 16:32 | 46.91081 | 7.50119 | 1741 ft | 20 kts | 140° |
| 2026-04-22 16:32 | 46.90968 | 7.50256 | 1735 ft | 22 kts | 140° |
| 2026-04-22 16:32 | 46.90841 | 7.50412 | 1729 ft | 25 kts | 140° |
| 2026-04-22 16:32 | 46.90741 | 7.50552 | 1730 ft | 14 kts | 121° |
| 2026-04-22 16:33 | 46.90726 | 7.50549 | 1734 ft | 2 kts | 292° |
| 2026-04-22 16:33 | 46.90733 | 7.50542 | 1732 ft | 0 kts | 320° |
| 2026-04-22 16:33 | 46.90733 | 7.50541 | 1731 ft | 3 kts | 320° |
| 2026-04-22 16:33 | 46.90972 | 7.50252 | 1731 ft | 86 kts | 320° |
| 2026-04-22 16:34 | 46.91623 | 7.49457 | 1688 ft | 154 kts | 322° |
| 2026-04-22 16:34 | 46.92478 | 7.48420 | 2351 ft | 161 kts | 325° |
| 2026-04-22 16:34 | 46.93340 | 7.47375 | 3175 ft | 161 kts | 324° |
| 2026-04-22 16:34 | 46.94205 | 7.46334 | 3885 ft | 164 kts | 329° |
| 2026-04-22 16:35 | 46.95147 | 7.45219 | 4198 ft | 185 kts | 329° |
| 2026-04-22 16:35 | 46.96183 | 7.43990 | 4612 ft | 195 kts | 328° |
| 2026-04-22 16:35 | 46.97242 | 7.42715 | 5169 ft | 198 kts | 328° |
| 2026-04-22 16:35 | 46.98295 | 7.41437 | 5716 ft | 201 kts | 324° |
| 2026-04-22 16:36 | 46.99329 | 7.40052 | 6250 ft | 206 kts | 309° |
| 2026-04-22 16:36 | 46.99860 | 7.38112 | 6802 ft | 209 kts | 276° |
| 2026-04-22 16:36 | 46.99616 | 7.36023 | 7258 ft | 213 kts | 241° |
| 2026-04-22 16:36 | 46.98635 | 7.34440 | 7813 ft | 209 kts | 209° |
| 2026-04-22 16:37 | 46.97277 | 7.33764 | 8318 ft | 207 kts | 191° |
| 2026-04-22 16:37 | 46.95873 | 7.33325 | 8871 ft | 207 kts | 189° |
| 2026-04-22 16:37 | 46.94470 | 7.32801 | 9412 ft | 209 kts | 201° |
| 2026-04-22 16:37 | 46.93243 | 7.31672 | 9941 ft | 211 kts | 223° |
| 2026-04-22 16:38 | 46.92308 | 7.29904 | 10108 ft | 232 kts | 238° |
| 2026-04-22 16:38 | 46.91429 | 7.27809 | 10351 ft | 251 kts | 238° |
| 2026-04-22 16:38 | 46.90470 | 7.25533 | 10591 ft | 275 kts | 238° |
| 2026-04-22 16:38 | 46.89434 | 7.23085 | 10860 ft | 298 kts | 238° |
| 2026-04-22 16:39 | 46.88297 | 7.20407 | 11107 ft | 322 kts | 238° |
| 2026-04-22 16:39 | 46.87090 | 7.17567 | 11615 ft | 333 kts | 238° |
| 2026-04-22 16:39 | 46.85851 | 7.14654 | 12314 ft | 339 kts | 238° |
| 2026-04-22 16:39 | 46.84592 | 7.11701 | 13015 ft | 345 kts | 238° |
| 2026-04-22 16:40 | 46.83307 | 7.08703 | 13743 ft | 350 kts | 237° |
| 2026-04-22 16:40 | 46.82013 | 7.05688 | 14438 ft | 353 kts | 238° |
| 2026-04-22 16:40 | 46.79231 | 6.99684 | 15689 ft | 362 kts | 232° |
| 2026-04-22 16:41 | 46.77637 | 6.96807 | 16335 ft | 366 kts | 232° |
| 2026-04-22 16:41 | 46.76030 | 6.93909 | 17036 ft | 368 kts | 233° |
| 2026-04-22 16:41 | 46.74414 | 6.91001 | 17703 ft | 370 kts | 234° |
| 2026-04-22 16:41 | 46.72807 | 6.88105 | 18362 ft | 373 kts | 233° |
| 2026-04-22 16:42 | 46.71169 | 6.85151 | 18946 ft | 376 kts | 234° |
| 2026-04-22 16:42 | 46.69521 | 6.82183 | 19543 ft | 378 kts | 235° |
| 2026-04-22 16:42 | 46.67861 | 6.79200 | 20139 ft | 379 kts | 235° |
| 2026-04-22 16:42 | 46.66196 | 6.76202 | 20710 ft | 381 kts | 237° |
| 2026-04-22 16:43 | 46.64733 | 6.73005 | 21272 ft | 379 kts | 244° |
| 2026-04-22 16:43 | 46.63370 | 6.69726 | 21899 ft | 380 kts | 245° |
| 2026-04-22 16:43 | 46.61998 | 6.66426 | 22504 ft | 381 kts | 245° |
| 2026-04-22 16:43 | 46.60624 | 6.63122 | 23128 ft | 383 kts | 246° |
| 2026-04-22 16:44 | 46.59241 | 6.59802 | 23714 ft | 385 kts | 246° |
| 2026-04-22 16:44 | 46.57849 | 6.56474 | 24191 ft | 386 kts | 246° |
| 2026-04-22 16:44 | 46.56448 | 6.53129 | 24663 ft | 387 kts | 246° |
| 2026-04-22 16:44 | 46.55046 | 6.49783 | 25127 ft | 389 kts | 246° |
| 2026-04-22 16:45 | 46.53639 | 6.46428 | 25587 ft | 389 kts | 247° |
| 2026-04-22 16:45 | 46.52227 | 6.43070 | 26008 ft | 390 kts | 246° |
| 2026-04-22 16:45 | 46.50807 | 6.39697 | 26448 ft | 391 kts | 247° |
| 2026-04-22 16:45 | 46.49384 | 6.36324 | 26866 ft | 392 kts | 247° |
| 2026-04-22 16:46 | 46.47958 | 6.32939 | 27268 ft | 394 kts | 247° |
| 2026-04-22 16:46 | 46.46525 | 6.29544 | 27602 ft | 395 kts | 247° |
| 2026-04-22 16:46 | 46.45086 | 6.26138 | 27941 ft | 396 kts | 247° |
| 2026-04-22 16:46 | 46.43644 | 6.22729 | 28324 ft | 398 kts | 247° |
| 2026-04-22 16:47 | 46.42193 | 6.19300 | 28701 ft | 399 kts | 247° |
| 2026-04-22 16:47 | 46.40737 | 6.15866 | 29075 ft | 401 kts | 247° |
| 2026-04-22 16:47 | 46.39767 | 6.13582 | 29291 ft | 402 kts | 246° |
| 2026-04-22 16:47 | 46.37825 | 6.09010 | 29800 ft | 403 kts | 246° |
| 2026-04-22 16:48 | 46.36349 | 6.05546 | 30107 ft | 404 kts | 246° |
| 2026-04-22 16:48 | 46.34868 | 6.02076 | 30380 ft | 406 kts | 246° |
| 2026-04-22 16:48 | 46.33377 | 5.98589 | 30516 ft | 409 kts | 245° |
| 2026-04-22 16:48 | 46.31874 | 5.95077 | 30743 ft | 412 kts | 245° |
| 2026-04-22 16:49 | 46.30360 | 5.91538 | 30958 ft | 415 kts | 246° |
| 2026-04-22 16:49 | 46.28837 | 5.87988 | 31213 ft | 417 kts | 245° |
| 2026-04-22 16:49 | 46.27294 | 5.84403 | 31464 ft | 419 kts | 246° |
| 2026-04-22 16:49 | 46.25753 | 5.80822 | 31733 ft | 419 kts | 245° |
| 2026-04-22 16:50 | 46.24210 | 5.77243 | 32082 ft | 418 kts | 246° |
| 2026-04-22 16:50 | 46.22678 | 5.73691 | 32391 ft | 417 kts | 246° |
| 2026-04-22 16:50 | 46.21143 | 5.70132 | 32656 ft | 417 kts | 245° |
| 2026-04-22 16:50 | 46.19605 | 5.66568 | 32947 ft | 418 kts | 245° |
| 2026-04-22 16:51 | 46.18066 | 5.63009 | 33218 ft | 418 kts | 246° |
| 2026-04-22 16:51 | 46.16542 | 5.59491 | 33531 ft | 418 kts | 246° |
| 2026-04-22 16:51 | 46.15003 | 5.55943 | 33830 ft | 418 kts | 245° |
| 2026-04-22 16:51 | 46.13421 | 5.52395 | 34093 ft | 421 kts | 244° |
| 2026-04-22 16:52 | 46.11776 | 5.48886 | 34335 ft | 423 kts | 243° |
| 2026-04-22 16:52 | 46.10095 | 5.45416 | 34590 ft | 424 kts | 243° |
| 2026-04-22 16:52 | 46.08942 | 5.43069 | 34759 ft | 424 kts | 242° |
| 2026-04-22 16:52 | 46.06684 | 5.38477 | 35071 ft | 424 kts | 242° |
| 2026-04-22 16:53 | 46.04983 | 5.34997 | 35301 ft | 424 kts | 242° |
| 2026-04-22 16:53 | 46.03292 | 5.31514 | 35494 ft | 425 kts | 242° |
| 2026-04-22 16:53 | 46.01605 | 5.28018 | 35684 ft | 426 kts | 242° |
| 2026-04-22 16:53 | 45.99919 | 5.24517 | 35901 ft | 426 kts | 242° |
| 2026-04-22 16:54 | 45.98778 | 5.22145 | 36051 ft | 426 kts | 242° |
| 2026-04-22 16:54 | 45.97092 | 5.18647 | 36264 ft | 426 kts | 242° |
| 2026-04-22 16:54 | 45.95424 | 5.15199 | 36469 ft | 426 kts | 242° |
| 2026-04-22 16:54 | 45.93725 | 5.11699 | 36634 ft | 427 kts | 242° |
| 2026-04-22 16:55 | 45.92025 | 5.08203 | 36834 ft | 427 kts | 242° |
| 2026-04-22 16:55 | 45.90323 | 5.04707 | 37030 ft | 427 kts | 242° |
| 2026-04-22 16:55 | 45.88604 | 5.01180 | 37111 ft | 426 kts | 242° |
| 2026-04-22 16:56 | 45.85228 | 4.94265 | 37105 ft | 423 kts | 242° |
| 2026-04-22 16:56 | 45.81846 | 4.87334 | 37111 ft | 423 kts | 241° |
| 2026-04-22 16:57 | 45.78462 | 4.80436 | 37111 ft | 423 kts | 241° |
| 2026-04-22 16:57 | 45.75096 | 4.73609 | 37112 ft | 423 kts | 241° |
| 2026-04-22 16:58 | 45.71698 | 4.66727 | 37097 ft | 422 kts | 241° |
| 2026-04-22 16:58 | 45.68310 | 4.59862 | 37106 ft | 422 kts | 241° |
| 2026-04-22 16:59 | 45.64940 | 4.53034 | 37105 ft | 422 kts | 241° |
| 2026-04-22 16:59 | 45.61555 | 4.46201 | 37111 ft | 422 kts | 241° |
| 2026-04-22 17:00 | 45.58143 | 4.39339 | 37111 ft | 422 kts | 241° |
| 2026-04-22 17:00 | 45.53030 | 4.29087 | 37118 ft | 422 kts | 241° |
| 2026-04-22 17:01 | 45.49614 | 4.22267 | 37087 ft | 422 kts | 240° |
| 2026-04-22 17:01 | 45.46193 | 4.15453 | 37094 ft | 423 kts | 240° |
| 2026-04-22 17:02 | 45.42766 | 4.08638 | 37102 ft | 423 kts | 240° |
| 2026-04-22 17:02 | 45.39332 | 4.01823 | 37123 ft | 424 kts | 240° |
| 2026-04-22 17:03 | 45.35891 | 3.95017 | 37110 ft | 424 kts | 240° |
| 2026-04-22 17:03 | 45.32440 | 3.88211 | 37130 ft | 424 kts | 240° |
| 2026-04-22 17:04 | 45.29009 | 3.81464 | 37079 ft | 424 kts | 240° |
| 2026-04-22 17:04 | 45.25553 | 3.74669 | 37075 ft | 424 kts | 240° |
| 2026-04-22 17:05 | 45.22152 | 3.67832 | 37077 ft | 424 kts | 241° |
| 2026-04-22 17:05 | 45.18792 | 3.60962 | 37088 ft | 424 kts | 241° |
| 2026-04-22 17:06 | 45.15418 | 3.54092 | 37092 ft | 424 kts | 241° |
| 2026-04-22 17:06 | 45.12024 | 3.47233 | 37084 ft | 425 kts | 241° |
| 2026-04-22 17:07 | 45.08639 | 3.40422 | 37093 ft | 425 kts | 240° |
| 2026-04-22 17:07 | 45.05237 | 3.33585 | 37099 ft | 425 kts | 241° |
| 2026-04-22 17:08 | 45.01821 | 3.26733 | 37100 ft | 425 kts | 240° |
| 2026-04-22 17:08 | 44.98416 | 3.19911 | 37093 ft | 425 kts | 240° |
| 2026-04-22 17:09 | 44.95025 | 3.13142 | 37091 ft | 425 kts | 240° |
| 2026-04-22 17:09 | 44.91608 | 3.06338 | 37089 ft | 425 kts | 240° |
| 2026-04-22 17:10 | 44.88179 | 2.99533 | 37069 ft | 425 kts | 240° |
| 2026-04-22 17:10 | 44.84766 | 2.92775 | 37076 ft | 425 kts | 240° |
| 2026-04-22 17:11 | 44.81455 | 2.85828 | 37079 ft | 424 kts | 243° |
| 2026-04-22 17:11 | 44.78316 | 2.78856 | 37075 ft | 424 kts | 243° |
| 2026-04-22 17:12 | 44.75147 | 2.71855 | 37074 ft | 424 kts | 243° |
| 2026-04-22 17:12 | 44.71932 | 2.64889 | 37052 ft | 424 kts | 242° |
| 2026-04-22 17:13 | 44.68699 | 2.57963 | 37057 ft | 424 kts | 242° |
| 2026-04-22 17:13 | 44.65467 | 2.51040 | 37070 ft | 424 kts | 242° |
| 2026-04-22 17:14 | 44.62244 | 2.44126 | 37071 ft | 423 kts | 242° |
| 2026-04-22 17:14 | 44.59010 | 2.37214 | 37062 ft | 423 kts | 242° |
| 2026-04-22 17:15 | 44.55801 | 2.30355 | 37066 ft | 423 kts | 242° |
| 2026-04-22 17:15 | 44.52547 | 2.23424 | 37047 ft | 423 kts | 242° |
| 2026-04-22 17:16 | 44.49336 | 2.16597 | 37056 ft | 423 kts | 242° |
| 2026-04-22 17:16 | 44.46070 | 2.09677 | 37050 ft | 423 kts | 242° |
| 2026-04-22 17:17 | 44.42844 | 2.02860 | 37054 ft | 423 kts | 242° |
| 2026-04-22 17:17 | 44.39591 | 1.95998 | 37036 ft | 423 kts | 242° |
| 2026-04-22 17:18 | 44.36325 | 1.89133 | 37030 ft | 424 kts | 241° |
| 2026-04-22 17:18 | 44.33059 | 1.82274 | 37037 ft | 424 kts | 241° |
| 2026-04-22 17:19 | 44.26564 | 1.68550 | 37044 ft | 423 kts | 242° |
| 2026-04-22 17:20 | 44.20258 | 1.54704 | 37035 ft | 423 kts | 242° |
| 2026-04-22 17:21 | 44.15480 | 1.44364 | 37026 ft | 423 kts | 242° |
| 2026-04-22 17:22 | 44.10689 | 1.34044 | 37025 ft | 423 kts | 242° |
| 2026-04-22 17:23 | 44.05905 | 1.23738 | 37032 ft | 423 kts | 242° |
| 2026-04-22 17:23 | 44.01127 | 1.13503 | 37008 ft | 423 kts | 242° |
| 2026-04-22 17:24 | 43.97921 | 1.06664 | 37020 ft | 422 kts | 242° |
| 2026-04-22 17:24 | 43.94715 | 0.99850 | 37026 ft | 421 kts | 242° |
| 2026-04-22 17:25 | 43.91515 | 0.93048 | 37025 ft | 421 kts | 242° |
| 2026-04-22 17:25 | 43.88066 | 0.86472 | 37023 ft | 427 kts | 231° |
| 2026-04-22 17:26 | 43.83651 | 0.80888 | 37025 ft | 430 kts | 226° |
| 2026-04-22 17:26 | 43.79175 | 0.75385 | 37014 ft | 430 kts | 226° |
| 2026-04-22 17:27 | 43.74710 | 0.69889 | 37023 ft | 429 kts | 226° |
| 2026-04-22 17:27 | 43.70247 | 0.64392 | 37038 ft | 429 kts | 227° |
| 2026-04-22 17:28 | 43.65796 | 0.58916 | 37033 ft | 428 kts | 226° |
| 2026-04-22 17:28 | 43.61336 | 0.53448 | 37011 ft | 428 kts | 226° |
| 2026-04-22 17:29 | 43.56875 | 0.47991 | 37022 ft | 429 kts | 226° |
| 2026-04-22 17:29 | 43.52401 | 0.42543 | 37035 ft | 429 kts | 226° |
| 2026-04-22 17:30 | 43.47925 | 0.37089 | 37032 ft | 429 kts | 226° |
| 2026-04-22 17:30 | 43.43480 | 0.31696 | 37059 ft | 428 kts | 226° |
| 2026-04-22 17:31 | 43.39014 | 0.26283 | 37057 ft | 428 kts | 226° |
| 2026-04-22 17:31 | 43.34550 | 0.20870 | 37069 ft | 428 kts | 226° |
| 2026-04-22 17:32 | 43.30083 | 0.15463 | 37070 ft | 428 kts | 226° |
| 2026-04-22 17:32 | 43.25607 | 0.10075 | 37079 ft | 428 kts | 226° |
| 2026-04-22 17:33 | 43.21123 | 0.04691 | 37072 ft | 428 kts | 226° |
| 2026-04-22 17:33 | 43.16642 | -0.00679 | 37084 ft | 428 kts | 226° |
| 2026-04-22 17:34 | 43.12162 | -0.06050 | 37095 ft | 427 kts | 226° |
| 2026-04-22 17:34 | 43.07687 | -0.11409 | 37100 ft | 427 kts | 226° |
| 2026-04-22 17:35 | 43.03219 | -0.16738 | 37096 ft | 426 kts | 226° |
| 2026-04-22 17:35 | 42.98746 | -0.22059 | 37077 ft | 426 kts | 225° |
| 2026-04-22 17:36 | 42.94274 | -0.27366 | 37074 ft | 426 kts | 225° |
| 2026-04-22 17:36 | 42.89804 | -0.32661 | 37065 ft | 426 kts | 225° |
| 2026-04-22 17:37 | 42.85327 | -0.37959 | 37051 ft | 426 kts | 225° |
| 2026-04-22 17:37 | 42.80725 | -0.43042 | 37045 ft | 430 kts | 216° |
| 2026-04-22 17:38 | 42.75271 | -0.46432 | 37031 ft | 437 kts | 205° |
| 2026-04-22 17:38 | 42.69605 | -0.49399 | 37030 ft | 437 kts | 206° |
| 2026-04-22 17:39 | 42.63935 | -0.52386 | 37010 ft | 437 kts | 205° |
| 2026-04-22 17:40 | 42.56387 | -0.56349 | 36983 ft | 437 kts | 205° |
| 2026-04-22 17:40 | 42.50707 | -0.59320 | 36969 ft | 437 kts | 205° |
| 2026-04-22 17:41 | 42.45026 | -0.62283 | 36969 ft | 437 kts | 205° |
| 2026-04-22 17:41 | 42.39348 | -0.65245 | 36951 ft | 438 kts | 205° |
| 2026-04-22 17:42 | 42.33664 | -0.68202 | 36940 ft | 437 kts | 205° |
| 2026-04-22 17:42 | 42.27984 | -0.71157 | 36938 ft | 437 kts | 205° |
| 2026-04-22 17:43 | 42.22291 | -0.74106 | 36939 ft | 438 kts | 205° |
| 2026-04-22 17:43 | 42.16606 | -0.77048 | 36916 ft | 437 kts | 205° |
| 2026-04-22 17:44 | 42.10937 | -0.79979 | 36928 ft | 436 kts | 205° |
| 2026-04-22 17:44 | 42.05258 | -0.82899 | 36933 ft | 436 kts | 205° |
| 2026-04-22 17:45 | 41.99630 | -0.85791 | 36928 ft | 436 kts | 205° |
| 2026-04-22 17:45 | 41.93968 | -0.88703 | 36919 ft | 436 kts | 205° |
| 2026-04-22 17:46 | 41.88303 | -0.91608 | 36921 ft | 436 kts | 204° |
| 2026-04-22 17:46 | 41.82635 | -0.94498 | 36923 ft | 435 kts | 204° |
| 2026-04-22 17:47 | 41.76976 | -0.97380 | 36910 ft | 435 kts | 204° |
| 2026-04-22 17:47 | 41.71316 | -1.00268 | 36910 ft | 435 kts | 204° |
| 2026-04-22 17:48 | 41.65813 | -1.03577 | 36910 ft | 430 kts | 216° |
| 2026-04-22 17:48 | 41.61238 | -1.08588 | 36911 ft | 425 kts | 226° |
| 2026-04-22 17:49 | 41.56851 | -1.13907 | 36909 ft | 425 kts | 225° |
| 2026-04-22 17:49 | 41.52457 | -1.19190 | 36914 ft | 425 kts | 225° |
| 2026-04-22 17:50 | 41.48064 | -1.24466 | 36938 ft | 424 kts | 225° |
| 2026-04-22 17:50 | 41.43686 | -1.29733 | 36942 ft | 424 kts | 225° |
| 2026-04-22 17:51 | 41.39298 | -1.34981 | 36950 ft | 424 kts | 225° |
| 2026-04-22 17:51 | 41.34901 | -1.40221 | 36953 ft | 424 kts | 225° |
| 2026-04-22 17:52 | 41.30553 | -1.45408 | 36949 ft | 424 kts | 225° |
| 2026-04-22 17:52 | 41.26148 | -1.50676 | 36950 ft | 424 kts | 225° |
| 2026-04-22 17:53 | 41.21759 | -1.55910 | 36963 ft | 424 kts | 224° |
| 2026-04-22 17:53 | 41.17357 | -1.61123 | 36972 ft | 424 kts | 224° |
| 2026-04-22 17:54 | 41.12958 | -1.66331 | 36987 ft | 423 kts | 224° |
| 2026-04-22 17:54 | 41.08559 | -1.71529 | 36982 ft | 424 kts | 224° |
| 2026-04-22 17:55 | 41.04150 | -1.76719 | 37001 ft | 424 kts | 224° |
| 2026-04-22 17:55 | 40.99748 | -1.81907 | 37003 ft | 424 kts | 224° |
| 2026-04-22 17:56 | 40.95341 | -1.87101 | 37015 ft | 424 kts | 224° |
| 2026-04-22 17:56 | 40.90936 | -1.92274 | 37010 ft | 423 kts | 224° |
| 2026-04-22 17:57 | 40.86548 | -1.97404 | 37011 ft | 423 kts | 224° |
| 2026-04-22 17:57 | 40.82140 | -2.02548 | 37014 ft | 423 kts | 224° |
| 2026-04-22 17:58 | 40.77731 | -2.07697 | 37014 ft | 423 kts | 224° |
| 2026-04-22 17:58 | 40.73318 | -2.12834 | 37013 ft | 423 kts | 224° |
| 2026-04-22 17:59 | 40.68905 | -2.17958 | 37014 ft | 423 kts | 224° |
| 2026-04-22 17:59 | 40.64492 | -2.23074 | 37015 ft | 423 kts | 223° |
| 2026-04-22 18:00 | 40.60820 | -2.27310 | 37014 ft | 423 kts | 223° |
| 2026-04-22 18:00 | 40.55648 | -2.33266 | 37009 ft | 422 kts | 223° |
| 2026-04-22 18:01 | 40.51230 | -2.38350 | 37010 ft | 422 kts | 223° |
| 2026-04-22 18:01 | 40.46846 | -2.43392 | 37010 ft | 421 kts | 223° |
| 2026-04-22 18:02 | 40.42437 | -2.48466 | 36995 ft | 421 kts | 223° |
| 2026-04-22 18:02 | 40.38030 | -2.53526 | 36995 ft | 421 kts | 225° |
| 2026-04-22 18:03 | 40.34171 | -2.59244 | 36996 ft | 418 kts | 232° |
| 2026-04-22 18:03 | 40.30453 | -2.65110 | 36996 ft | 418 kts | 232° |
| 2026-04-22 18:04 | 40.26726 | -2.70961 | 36995 ft | 418 kts | 232° |
| 2026-04-22 18:04 | 40.22991 | -2.76804 | 36996 ft | 418 kts | 232° |
| 2026-04-22 18:05 | 40.19249 | -2.82661 | 36986 ft | 418 kts | 232° |
| 2026-04-22 18:05 | 40.15536 | -2.88450 | 36987 ft | 418 kts | 232° |
| 2026-04-22 18:06 | 40.11793 | -2.94287 | 36985 ft | 418 kts | 232° |
| 2026-04-22 18:06 | 40.08051 | -3.00115 | 36991 ft | 418 kts | 232° |
| 2026-04-22 18:07 | 40.04303 | -3.05942 | 36987 ft | 418 kts | 232° |
| 2026-04-22 18:07 | 40.00581 | -3.11725 | 36991 ft | 418 kts | 232° |
| 2026-04-22 18:08 | 39.96840 | -3.17535 | 36989 ft | 418 kts | 232° |
| 2026-04-22 18:08 | 39.93092 | -3.23324 | 36984 ft | 418 kts | 231° |
| 2026-04-22 18:09 | 39.89340 | -3.29103 | 36984 ft | 418 kts | 231° |
| 2026-04-22 18:09 | 39.85584 | -3.34874 | 36978 ft | 418 kts | 231° |
| 2026-04-22 18:10 | 39.81832 | -3.40638 | 36980 ft | 418 kts | 231° |
| 2026-04-22 18:10 | 39.78091 | -3.46366 | 36975 ft | 417 kts | 231° |
| 2026-04-22 18:11 | 39.74126 | -3.51880 | 36971 ft | 418 kts | 227° |
| 2026-04-22 18:11 | 39.69986 | -3.57186 | 36973 ft | 418 kts | 226° |
| 2026-04-22 18:12 | 39.65854 | -3.62480 | 36972 ft | 418 kts | 227° |
| 2026-04-22 18:12 | 39.62422 | -3.66961 | 36970 ft | 417 kts | 227° |
| 2026-04-22 18:13 | 39.57684 | -3.73201 | 36978 ft | 417 kts | 227° |
| 2026-04-22 18:13 | 39.53602 | -3.78561 | 36976 ft | 417 kts | 227° |
| 2026-04-22 18:14 | 39.49506 | -3.83899 | 36976 ft | 417 kts | 227° |
| 2026-04-22 18:14 | 39.45412 | -3.89218 | 36976 ft | 417 kts | 227° |
| 2026-04-22 18:15 | 39.41353 | -3.94504 | 36979 ft | 417 kts | 227° |
| 2026-04-22 18:15 | 39.37254 | -3.99836 | 36983 ft | 416 kts | 227° |
| 2026-04-22 18:16 | 39.33166 | -4.05136 | 36988 ft | 416 kts | 227° |
| 2026-04-22 18:16 | 39.29184 | -4.10292 | 36979 ft | 416 kts | 227° |
| 2026-04-22 18:17 | 39.25092 | -4.15571 | 36979 ft | 416 kts | 227° |
| 2026-04-22 18:17 | 39.21001 | -4.20846 | 36969 ft | 416 kts | 227° |
| 2026-04-22 18:18 | 39.16912 | -4.26117 | 36963 ft | 416 kts | 227° |
| 2026-04-22 18:18 | 39.12842 | -4.31356 | 36966 ft | 416 kts | 227° |
| 2026-04-22 18:19 | 39.08742 | -4.36615 | 36970 ft | 416 kts | 227° |
| 2026-04-22 18:19 | 39.04641 | -4.41870 | 36972 ft | 416 kts | 227° |
| 2026-04-22 18:20 | 39.00532 | -4.47128 | 36965 ft | 416 kts | 227° |
| 2026-04-22 18:20 | 38.96419 | -4.52383 | 36975 ft | 416 kts | 227° |
| 2026-04-22 18:21 | 38.92311 | -4.57617 | 36975 ft | 416 kts | 227° |
| 2026-04-22 18:21 | 38.88200 | -4.62844 | 36981 ft | 415 kts | 227° |
| 2026-04-22 18:22 | 38.84095 | -4.68055 | 36978 ft | 415 kts | 227° |
| 2026-04-22 18:22 | 38.79990 | -4.73251 | 36976 ft | 414 kts | 227° |
| 2026-04-22 18:23 | 38.75888 | -4.78440 | 36965 ft | 414 kts | 227° |
| 2026-04-22 18:23 | 38.71787 | -4.83618 | 36966 ft | 414 kts | 227° |
| 2026-04-22 18:24 | 38.65635 | -4.91386 | 36964 ft | 414 kts | 227° |
| 2026-04-22 18:25 | 38.59497 | -4.99081 | 36976 ft | 413 kts | 227° |
| 2026-04-22 18:25 | 38.55402 | -5.04209 | 36976 ft | 412 kts | 225° |
| 2026-04-22 18:26 | 38.50553 | -5.08123 | 36961 ft | 419 kts | 203° |
| 2026-04-22 18:26 | 38.47724 | -5.09076 | 36962 ft | 423 kts | 192° |
| 2026-04-22 18:26 | 38.42795 | -5.09072 | 36959 ft | 430 kts | 179° |
| 2026-04-22 18:27 | 38.36836 | -5.08397 | 36955 ft | 430 kts | 179° |
| 2026-04-22 18:27 | 38.30863 | -5.07744 | 36953 ft | 430 kts | 179° |
| 2026-04-22 18:28 | 38.24898 | -5.07080 | 36951 ft | 431 kts | 179° |
| 2026-04-22 18:28 | 38.18938 | -5.06604 | 36950 ft | 426 kts | 187° |
| 2026-04-22 18:29 | 38.13225 | -5.08136 | 36947 ft | 416 kts | 205° |
| 2026-04-22 18:29 | 38.07958 | -5.11127 | 36936 ft | 415 kts | 207° |
| 2026-04-22 18:30 | 38.00023 | -5.15622 | 36940 ft | 416 kts | 207° |
| 2026-04-22 18:31 | 37.94736 | -5.18616 | 36935 ft | 416 kts | 207° |
| 2026-04-22 18:31 | 37.89489 | -5.21589 | 36936 ft | 415 kts | 207° |
| 2026-04-22 18:32 | 37.84172 | -5.24593 | 36941 ft | 416 kts | 207° |
| 2026-04-22 18:32 | 37.78920 | -5.27557 | 36924 ft | 417 kts | 207° |
| 2026-04-22 18:32 | 37.76267 | -5.29053 | 36652 ft | 419 kts | 207° |
| 2026-04-22 18:33 | 37.73590 | -5.30562 | 35781 ft | 423 kts | 207° |
| 2026-04-22 18:33 | 37.70876 | -5.32094 | 34784 ft | 431 kts | 207° |
| 2026-04-22 18:33 | 37.68139 | -5.33637 | 34067 ft | 431 kts | 207° |
| 2026-04-22 18:33 | 37.65417 | -5.35166 | 33533 ft | 425 kts | 207° |
| 2026-04-22 18:34 | 37.62727 | -5.36669 | 32946 ft | 420 kts | 207° |
| 2026-04-22 18:34 | 37.60069 | -5.38151 | 32455 ft | 414 kts | 207° |
| 2026-04-22 18:34 | 37.57445 | -5.39619 | 31942 ft | 409 kts | 207° |
| 2026-04-22 18:34 | 37.54890 | -5.41050 | 31471 ft | 404 kts | 207° |
| 2026-04-22 18:35 | 37.52320 | -5.42490 | 30995 ft | 400 kts | 207° |
| 2026-04-22 18:35 | 37.49792 | -5.43907 | 30530 ft | 395 kts | 207° |
| 2026-04-22 18:35 | 37.47304 | -5.45304 | 30080 ft | 391 kts | 207° |
| 2026-04-22 18:35 | 37.44821 | -5.46707 | 29551 ft | 388 kts | 207° |
| 2026-04-22 18:36 | 37.42365 | -5.48085 | 29029 ft | 384 kts | 207° |
| 2026-04-22 18:36 | 37.39923 | -5.49446 | 28510 ft | 381 kts | 207° |
| 2026-04-22 18:36 | 37.37537 | -5.50772 | 28044 ft | 376 kts | 206° |
| 2026-04-22 18:36 | 37.35181 | -5.52076 | 27802 ft | 367 kts | 206° |
| 2026-04-22 18:37 | 37.32852 | -5.53363 | 27461 ft | 361 kts | 206° |
| 2026-04-22 18:37 | 37.30578 | -5.54624 | 27059 ft | 357 kts | 206° |
| 2026-04-22 18:37 | 37.28315 | -5.55881 | 26649 ft | 353 kts | 206° |
| 2026-04-22 18:37 | 37.26070 | -5.57129 | 26234 ft | 350 kts | 206° |
| 2026-04-22 18:38 | 37.23845 | -5.58367 | 25815 ft | 347 kts | 206° |
| 2026-04-22 18:38 | 37.21647 | -5.59587 | 25385 ft | 345 kts | 206° |
| 2026-04-22 18:38 | 37.19458 | -5.60801 | 24961 ft | 342 kts | 206° |
| 2026-04-22 18:39 | 37.15110 | -5.63200 | 24004 ft | 341 kts | 206° |
| 2026-04-22 18:39 | 37.12931 | -5.64378 | 23526 ft | 341 kts | 205° |
| 2026-04-22 18:39 | 37.10747 | -5.65548 | 22994 ft | 340 kts | 205° |
| 2026-04-22 18:39 | 37.08578 | -5.66709 | 22526 ft | 337 kts | 205° |
| 2026-04-22 18:40 | 37.06453 | -5.67847 | 22068 ft | 335 kts | 205° |
| 2026-04-22 18:40 | 37.04320 | -5.68988 | 21618 ft | 333 kts | 205° |
| 2026-04-22 18:40 | 37.02191 | -5.70129 | 21168 ft | 331 kts | 205° |
| 2026-04-22 18:40 | 37.00070 | -5.71268 | 20715 ft | 330 kts | 205° |
| 2026-04-22 18:41 | 36.97968 | -5.72396 | 20277 ft | 329 kts | 205° |
| 2026-04-22 18:41 | 36.95871 | -5.73521 | 19836 ft | 327 kts | 205° |
| 2026-04-22 18:41 | 36.93778 | -5.74644 | 19394 ft | 326 kts | 205° |
| 2026-04-22 18:41 | 36.91698 | -5.75759 | 18953 ft | 326 kts | 205° |
| 2026-04-22 18:42 | 36.89615 | -5.76875 | 18529 ft | 325 kts | 206° |
| 2026-04-22 18:42 | 36.87537 | -5.77988 | 18061 ft | 325 kts | 205° |
| 2026-04-22 18:42 | 36.85447 | -5.79051 | 17601 ft | 324 kts | 200° |
| 2026-04-22 18:42 | 36.83260 | -5.79734 | 17160 ft | 323 kts | 196° |
| 2026-04-22 18:43 | 36.81074 | -5.80375 | 16736 ft | 322 kts | 196° |
| 2026-04-22 18:43 | 36.78902 | -5.81012 | 16308 ft | 320 kts | 196° |
| 2026-04-22 18:43 | 36.76741 | -5.81645 | 15884 ft | 318 kts | 196° |
| 2026-04-22 18:43 | 36.74597 | -5.82272 | 15478 ft | 316 kts | 196° |
| 2026-04-22 18:44 | 36.72474 | -5.82892 | 15097 ft | 313 kts | 196° |
| 2026-04-22 18:44 | 36.70391 | -5.83500 | 14768 ft | 309 kts | 196° |
| 2026-04-22 18:44 | 36.68271 | -5.84122 | 14372 ft | 307 kts | 196° |
| 2026-04-22 18:44 | 36.66199 | -5.84731 | 13999 ft | 304 kts | 196° |
| 2026-04-22 18:45 | 36.64178 | -5.85322 | 13863 ft | 293 kts | 196° |
| 2026-04-22 18:45 | 36.62200 | -5.85901 | 13283 ft | 298 kts | 196° |
| 2026-04-22 18:45 | 36.60177 | -5.86494 | 12794 ft | 297 kts | 196° |
| 2026-04-22 18:45 | 36.58589 | -5.86960 | 12469 ft | 293 kts | 196° |
| 2026-04-22 18:46 | 36.56625 | -5.87534 | 11875 ft | 284 kts | 196° |
| 2026-04-22 18:46 | 36.54752 | -5.88079 | 11515 ft | 270 kts | 196° |
| 2026-04-22 18:46 | 36.53047 | -5.88829 | 11152 ft | 253 kts | 213° |
| 2026-04-22 18:46 | 36.51784 | -5.90262 | 10793 ft | 242 kts | 233° |
| 2026-04-22 18:47 | 36.51107 | -5.92144 | 10429 ft | 236 kts | 254° |
| 2026-04-22 18:47 | 36.50863 | -5.94151 | 10091 ft | 239 kts | 257° |
| 2026-04-22 18:47 | 36.50625 | -5.96205 | 9707 ft | 241 kts | 257° |
| 2026-04-22 18:47 | 36.50381 | -5.98275 | 9310 ft | 241 kts | 257° |
| 2026-04-22 18:48 | 36.50137 | -6.00338 | 8925 ft | 240 kts | 257° |
| 2026-04-22 18:48 | 36.49913 | -6.02355 | 8546 ft | 231 kts | 261° |
| 2026-04-22 18:48 | 36.50045 | -6.04299 | 8186 ft | 226 kts | 275° |
| 2026-04-22 18:48 | 36.50346 | -6.06188 | 7821 ft | 220 kts | 275° |
| 2026-04-22 18:49 | 36.50636 | -6.08056 | 7441 ft | 221 kts | 275° |
| 2026-04-22 18:49 | 36.50924 | -6.09944 | 7073 ft | 223 kts | 275° |
| 2026-04-22 18:49 | 36.51211 | -6.11847 | 6672 ft | 226 kts | 275° |
| 2026-04-22 18:49 | 36.51503 | -6.13775 | 6275 ft | 230 kts | 276° |
| 2026-04-22 18:50 | 36.52159 | -6.15601 | 5838 ft | 245 kts | 309° |
| 2026-04-22 18:50 | 36.53663 | -6.16643 | 5385 ft | 258 kts | 348° |
| 2026-04-22 18:50 | 36.55447 | -6.16418 | 4977 ft | 261 kts | 19° |
| 2026-04-22 18:50 | 36.57114 | -6.15509 | 4470 ft | 263 kts | 29° |
| 2026-04-22 18:51 | 36.58711 | -6.14431 | 3978 ft | 257 kts | 30° |
| 2026-04-22 18:51 | 36.60259 | -6.13402 | 3584 ft | 247 kts | 28° |
| 2026-04-22 18:51 | 36.61762 | -6.12482 | 3197 ft | 232 kts | 28° |
| 2026-04-22 18:51 | 36.63202 | -6.11671 | 2820 ft | 223 kts | 26° |
| 2026-04-22 18:52 | 36.64583 | -6.10936 | 2462 ft | 214 kts | 24° |
| 2026-04-22 18:52 | 36.65914 | -6.10254 | 2136 ft | 198 kts | 24° |
| 2026-04-22 18:52 | 36.67141 | -6.09638 | 1797 ft | 184 kts | 22° |
| 2026-04-22 18:52 | 36.68292 | -6.09064 | 1501 ft | 167 kts | 21° |
| 2026-04-22 18:53 | 36.69315 | -6.08554 | 1210 ft | 154 kts | 20° |
| 2026-04-22 18:53 | 36.70292 | -6.08063 | 896 ft | 147 kts | 19° |
| 2026-04-22 18:53 | 36.71214 | -6.07608 | 626 ft | 142 kts | 17° |
| 2026-04-22 18:53 | 36.72144 | -6.07144 | 407 ft | 139 kts | 20° |
| 2026-04-22 18:54 | 36.73051 | -6.06701 | 208 ft | 144 kts | 20° |
| 2026-04-22 18:54 | 36.73968 | -6.06251 | 90 ft | 132 kts | 19° |
| 2026-04-22 18:54 | 36.74678 | -6.05909 | 91 ft | 85 kts | 22° |
| 2026-04-22 18:54 | 36.75033 | -6.05733 | 93 ft | 46 kts | 21° |
| 2026-04-22 18:55 | 36.75305 | -6.05600 | 93 ft | 35 kts | 22° |
| 2026-04-22 18:55 | 36.75432 | -6.05581 | 92 ft | 9 kts | 296° |
| 2026-04-22 18:55 | 36.75465 | -6.05691 | 86 ft | 17 kts | 290° |
| 2026-04-22 18:55 | 36.75412 | -6.05766 | 89 ft | 15 kts | 201° |
| 2026-04-22 18:56 | 36.75297 | -6.05823 | 85 ft | 21 kts | 202° |
| 2026-04-22 18:56 | 36.75150 | -6.05895 | 87 ft | 24 kts | 201° |
| 2026-04-22 18:56 | 36.75090 | -6.05925 | 88 ft | 4 kts | 202° |
| 2026-04-22 18:56 | 36.75016 | -6.05960 | 85 ft | 14 kts | 201° |
| 2026-04-22 18:57 | 36.74930 | -6.06029 | 86 ft | 16 kts | 249° |
| 2026-04-22 18:57 | 36.74946 | -6.06116 | 85 ft | 0 kts | 295° |
| 2026-04-22 18:57 | 36.74955 | -6.06143 | 86 ft | 10 kts | 291° |
| 2026-04-22 18:57 | 36.74928 | -6.06226 | 85 ft | 12 kts | 200° |
| 2026-04-22 18:58 | 36.74909 | -6.06250 | 88 ft | 0 kts | 297° |
| 2026-04-22 18:58 | 36.74922 | -6.06291 | 87 ft | 8 kts | 290° |
| 2026-04-22 18:58 | 36.74934 | -6.06330 | 87 ft | 3 kts | 290° |
| 2026-04-22 18:58 | 36.74934 | -6.06332 | 88 ft | 0 kts | 290° |